CheckWX is a tool to help pilots better visualize weather data.  It is not intended as a substitute for an official pre-flight weather briefing.

09:56:25 UTC

CYFS METAR
Fort Simpson Airport
Fort Simpson, Canada
Current

56 mins ago

CYFS 210900Z 13003KT 070V160 15SM FEW240 02/M04 A3012 RMK CI1 CI TR SLP210
Observed
Mar-21 @ 09:00 UTC
Wind
  • 130° at 3 KTS
Visibility
15 SM
Flight Rules
VFR
Cloud Levels
  • Few at 24,000' AGL
Temperature
C / 36°F
Dewpoint
-4°C / 25°F
Humidity
65%
Altimeter
30.12" Hg
Pressure
1021 hPa
Previous

2 hours ago

CYFS 210800Z 13004KT 090V160 15SM FEW240 03/M04 A3014 RMK CI1 CI TR SLP217
Observed
Mar-21 @ 08:00 UTC
Wind
  • 130° at 4 KTS
Visibility
15 SM
Flight Rules
VFR
Cloud Levels
  • Few at 24,000' AGL
Temperature
C / 37°F
Dewpoint
-4°C / 25°F
Humidity
60%
Altimeter
30.14" Hg
Pressure
1021.7 hPa
Previous

3 hours ago

CYFS 210700Z 14003KT 080V160 15SM FEW240 04/M05 A3015 RMK CI1 CI TR SLP221
Observed
Mar-21 @ 07:00 UTC
Wind
  • 140° at 3 KTS
Visibility
15 SM
Flight Rules
VFR
Cloud Levels
  • Few at 24,000' AGL
Temperature
C / 39°F
Dewpoint
-5°C / 23°F
Humidity
52%
Altimeter
30.15" Hg
Pressure
1022.1 hPa